EST,Max TemperatureF,Mean TemperatureF,Min TemperatureF,Max Dew PointF,MeanDew PointF,Min DewpointF,Max Humidity, Mean Humidity, Min Humidity, Max Sea Level PressureIn, Mean Sea Level PressureIn, Min Sea Level PressureIn, Max VisibilityMiles, Mean VisibilityMiles, Min VisibilityMiles, Max Wind SpeedMPH, Mean Wind SpeedMPH, Max Gust SpeedMPH,PrecipitationIn, CloudCover, Events, WindDirDegrees
2013-12-1,50,46,42,48,42,32,96,84,67,30.39,30.16,30.02,,,,7,5,,0.07,,,195
2013-12-2,44,39,34,41,38,31,97,89,80,30.01,29.97,29.90,,,,6,3,,0.00,,,4
2013-12-3,48,42,37,40,37,33,97,80,64,30.00,29.92,29.87,,,,9,6,,0.00,,,323
2013-12-4,48,42,36,42,34,31,96,73,61,30.19,30.12,30.01,,,,8,4,,0.00,,,289
2013-12-5,55,52,48,54,51,45,100,94,83,30.18,30.09,29.98,,,,10,4,21,0.02,,,169
2013-12-6,57,48,39,56,47,37,100,92,82,30.11,30.00,29.92,,,,16,9,21,0.33,,,298
2013-12-7,42,38,34,37,28,21,93,69,52,30.48,30.28,30.08,,,,16,12,24,0.19,,,332
2013-12-8,35,34,32,31,20,17,89,58,50,30.61,30.53,30.43,,,,15,9,22,0.00,,,15
2013-12-9,50,42,34,49,40,32,100,94,89,30.39,30.09,29.91,,,,15,11,26,0.47,,,47
2013-12-10,39,36,34,36,31,19,97,81,54,30.07,29.94,29.83,,,,20,9,33,0.20,,,293
2013-12-11,35,32,30,20,18,13,64,54,45,30.30,30.21,30.08,,,,18,14,30,0.00,,,253
2013-12-12,32,28,25,17,10,3,61,50,36,30.31,30.24,30.13,,,,15,12,24,0.00,,,298
2013-12-13,34,30,26,20,15,11,66,53,48,30.37,30.17,30.08,,,,18,15,31,0.00,,,270
2013-12-14,39,29,21,37,21,11,93,77,51,30.55,30.38,29.97,,,,17,10,33,0.38,,,48
2013-12-15,53,44,34,53,35,22,100,83,57,29.88,29.62,29.41,,,,18,14,33,1.24,,,272
2013-12-16,36,32,27,25,14,7,64,50,41,30.23,30.03,29.81,,,,17,11,28,0.00,,,274
2013-12-17,43,34,24,41,24,9,93,80,47,30.26,30.09,29.89,,,,15,7,22,0.42,,,38
2013-12-18,36,32,27,25,23,20,88,70,54,30.15,30.00,29.86,,,,17,11,25,0.00,,,301
2013-12-19,46,39,32,33,28,22,73,63,50,30.17,30.12,30.03,,,,17,9,29,0.00,,,234
2013-12-20,52,42,32,48,39,29,92,78,57,30.14,30.06,30.00,,,,14,4,25,0.00,,,216
2013-12-21,55,52,48,52,48,46,93,86,75,30.04,29.99,29.95,,,,14,11,26,0.00,,,213
2013-12-22,60,56,53,56,53,50,100,90,75,30.01,29.94,29.88,,,,18,13,36,0.00,,,213
2013-12-23,59,51,42,54,47,37,100,93,82,30.09,30.01,29.92,,,,13,7,22,0.52,,,322
2013-12-24,39,36,30,34,22,12,79,56,44,30.26,30.13,30.05,,,,20,13,28,0.02,,,332
2013-12-25,32,24,21,23,10,5,69,54,45,30.55,30.46,30.28,,,,17,11,31,0.00,,,330
2013-12-26,44,39,34,37,29,24,89,71,62,30.45,30.27,30.13,,,,15,8,25,0.04,,,232
2013-12-27,37,35,33,26,24,21,73,62,51,30.33,30.29,30.25,,,,14,9,22,0.00,,,276
2013-12-28,48,41,34,36,31,25,76,65,54,30.28,30.16,30.07,,,,16,8,32,0.00,,,224
2013-12-29,53,48,42,53,40,31,100,82,56,30.07,29.78,29.34,,,,17,8,28,1.24,,,217
2013-12-30,44,34,23,39,27,9,89,69,43,30.17,29.94,29.66,,,,20,12,29,0.00,,,297
2013-12-31,33,26,19,20,13,9,68,60,47,30.24,30.15,30.08,,,,16,7,28,0.00,,,286